KJDN

Details ICAO KJDN
Name Jordan
Region United States
Timezone America/Denver (UTC-7.0)
Plans Departing 0
Arriving 3
Stats Elevation 2,662 ft / 811 m (AMSL)
Location 47.328701° -106.952658°
Runways 1
Magnetic Variation 10.018° E
Sunrise 2017-12-12 14:47:25 UTC / 2017-12-12 07:47:25 Local
Sunset 2017-12-12 23:18:48 UTC / 2017-12-12 16:18:48 Local
Advertisement - Login to hide

Runways

ID Width Length Bearing (true) Bearing (mag) Surface Threshold Offset Overrun Length
10 75 ft / 23 m 4,321 ft / 1,317 m 114.98° 104.96° Asphalt 0 ft / 0 m 0 ft / 0 m
28 75 ft / 23 m 4,321 ft / 1,317 m 295.00° 284.98° Asphalt 0 ft / 0 m 0 ft / 0 m

Map

Weather


0- 5 10 15 20 25 30 35+ Temperature / ° C

Clouds and Precipitation
Forecast for 2017-12-13 06:00 UTC. Updated 25 minutes ago

Ground ~20,000 ft ~40,000 ft Winds

METAR

KJDN 130448Z AUTO 30009KT 06/M07 A3001 RMK AO1 PK WND 32033/0400 SLP180 T00561072

TAF

Not found

Frequencies

Unicom 122.90 MHz CTAF
Warning: Do not use this data for real-world aviation or navigation. No guarantee of current accuracy is given.